sensor_id;sensor_type;location;lat;lon;timestamp;P1;durP1;ratioP1;P2;durP2;ratioP2
56667;SDS011;42542;48.360;10.958;2023-12-20T00:02:36;9.48;;;3.58;;
56667;SDS011;42542;48.360;10.958;2023-12-20T00:05:39;8.77;;;2.90;;
56667;SDS011;42542;48.360;10.958;2023-12-20T00:08:42;6.90;;;2.58;;
56667;SDS011;42542;48.360;10.958;2023-12-20T00:11:46;6.43;;;2.20;;
56667;SDS011;42542;48.360;10.958;2023-12-20T00:14:48;6.53;;;2.10;;
56667;SDS011;42542;48.360;10.958;2023-12-20T00:17:50;6.13;;;1.85;;
56667;SDS011;42542;48.360;10.958;2023-12-20T00:20:52;5.70;;;1.70;;
56667;SDS011;42542;48.360;10.958;2023-12-20T00:23:54;6.18;;;1.80;;
56667;SDS011;42542;48.360;10.958;2023-12-20T00:26:56;6.03;;;1.50;;
56667;SDS011;42542;48.360;10.958;2023-12-20T00:29:59;5.90;;;1.63;;
56667;SDS011;42542;48.360;10.958;2023-12-20T00:33:01;4.93;;;1.60;;
56667;SDS011;42542;48.360;10.958;2023-12-20T00:36:04;7.00;;;1.90;;
56667;SDS011;42542;48.360;10.958;2023-12-20T00:39:07;6.15;;;1.95;;
56667;SDS011;42542;48.360;10.958;2023-12-20T00:42:08;6.35;;;2.00;;
56667;SDS011;42542;48.360;10.958;2023-12-20T00:45:10;6.43;;;1.73;;
56667;SDS011;42542;48.360;10.958;2023-12-20T00:48:11;5.45;;;1.80;;
56667;SDS011;42542;48.360;10.958;2023-12-20T00:51:14;5.80;;;1.95;;
56667;SDS011;42542;48.360;10.958;2023-12-20T00:54:16;5.88;;;2.03;;
56667;SDS011;42542;48.360;10.958;2023-12-20T00:57:18;6.20;;;1.63;;
56667;SDS011;42542;48.360;10.958;2023-12-20T01:00:20;6.05;;;1.83;;
56667;SDS011;42542;48.360;10.958;2023-12-20T01:03:22;5.97;;;1.90;;
56667;SDS011;42542;48.360;10.958;2023-12-20T01:06:24;5.70;;;1.80;;
56667;SDS011;42542;48.360;10.958;2023-12-20T01:09:26;5.35;;;1.55;;
56667;SDS011;42542;48.360;10.958;2023-12-20T01:12:28;5.28;;;1.50;;
56667;SDS011;42542;48.360;10.958;2023-12-20T01:15:30;5.22;;;1.70;;
56667;SDS011;42542;48.360;10.958;2023-12-20T01:18:32;5.93;;;1.60;;
56667;SDS011;42542;48.360;10.958;2023-12-20T01:21:34;6.30;;;1.98;;
56667;SDS011;42542;48.360;10.958;2023-12-20T01:24:36;6.22;;;1.70;;
56667;SDS011;42542;48.360;10.958;2023-12-20T01:27:38;5.67;;;1.70;;
56667;SDS011;42542;48.360;10.958;2023-12-20T01:30:41;4.47;;;1.30;;
56667;SDS011;42542;48.360;10.958;2023-12-20T01:33:42;5.22;;;1.50;;
56667;SDS011;42542;48.360;10.958;2023-12-20T01:36:44;5.33;;;1.40;;
56667;SDS011;42542;48.360;10.958;2023-12-20T01:39:46;5.32;;;1.55;;
56667;SDS011;42542;48.360;10.958;2023-12-20T01:42:57;5.15;;;1.52;;
56667;SDS011;42542;48.360;10.958;2023-12-20T01:46:00;4.88;;;1.30;;
56667;SDS011;42542;48.360;10.958;2023-12-20T01:49:02;5.28;;;1.50;;
56667;SDS011;42542;48.360;10.958;2023-12-20T01:52:05;5.75;;;1.60;;
56667;SDS011;42542;48.360;10.958;2023-12-20T01:55:11;5.50;;;1.38;;
56667;SDS011;42542;48.360;10.958;2023-12-20T01:58:17;4.70;;;1.40;;
56667;SDS011;42542;48.360;10.958;2023-12-20T02:01:19;4.88;;;1.25;;
56667;SDS011;42542;48.360;10.958;2023-12-20T02:04:21;5.10;;;1.48;;
56667;SDS011;42542;48.360;10.958;2023-12-20T02:07:23;4.57;;;1.30;;
56667;SDS011;42542;48.360;10.958;2023-12-20T02:10:25;4.90;;;1.30;;
56667;SDS011;42542;48.360;10.958;2023-12-20T02:13:28;5.45;;;1.42;;
56667;SDS011;42542;48.360;10.958;2023-12-20T02:16:29;4.70;;;1.35;;
56667;SDS011;42542;48.360;10.958;2023-12-20T02:19:31;5.68;;;1.40;;
56667;SDS011;42542;48.360;10.958;2023-12-20T02:22:33;5.20;;;1.50;;
56667;SDS011;42542;48.360;10.958;2023-12-20T02:25:35;5.68;;;1.52;;
56667;SDS011;42542;48.360;10.958;2023-12-20T02:28:37;5.67;;;1.60;;
56667;SDS011;42542;48.360;10.958;2023-12-20T02:31:39;4.72;;;1.35;;
56667;SDS011;42542;48.360;10.958;2023-12-20T02:34:41;5.43;;;1.58;;
56667;SDS011;42542;48.360;10.958;2023-12-20T02:37:43;5.23;;;1.53;;
56667;SDS011;42542;48.360;10.958;2023-12-20T02:40:45;5.22;;;1.60;;
56667;SDS011;42542;48.360;10.958;2023-12-20T02:43:50;4.65;;;1.20;;
56667;SDS011;42542;48.360;10.958;2023-12-20T02:46:52;4.50;;;1.25;;
56667;SDS011;42542;48.360;10.958;2023-12-20T02:49:55;6.13;;;1.60;;
56667;SDS011;42542;48.360;10.958;2023-12-20T02:52:57;4.53;;;1.30;;
56667;SDS011;42542;48.360;10.958;2023-12-20T02:55:59;4.45;;;1.30;;
56667;SDS011;42542;48.360;10.958;2023-12-20T02:59:00;4.63;;;1.20;;
56667;SDS011;42542;48.360;10.958;2023-12-20T03:02:03;5.07;;;1.40;;
56667;SDS011;42542;48.360;10.958;2023-12-20T03:05:05;5.00;;;1.52;;
56667;SDS011;42542;48.360;10.958;2023-12-20T03:08:07;4.70;;;1.40;;
56667;SDS011;42542;48.360;10.958;2023-12-20T03:11:09;4.78;;;1.40;;
56667;SDS011;42542;48.360;10.958;2023-12-20T03:14:11;5.18;;;1.40;;
56667;SDS011;42542;48.360;10.958;2023-12-20T03:17:12;4.53;;;1.35;;
56667;SDS011;42542;48.360;10.958;2023-12-20T03:20:14;5.40;;;1.70;;
56667;SDS011;42542;48.360;10.958;2023-12-20T03:23:17;5.05;;;1.50;;
56667;SDS011;42542;48.360;10.958;2023-12-20T03:26:19;6.55;;;1.80;;
56667;SDS011;42542;48.360;10.958;2023-12-20T03:29:21;5.67;;;1.30;;
56667;SDS011;42542;48.360;10.958;2023-12-20T03:32:23;5.38;;;1.60;;
56667;SDS011;42542;48.360;10.958;2023-12-20T03:35:25;5.80;;;1.60;;
56667;SDS011;42542;48.360;10.958;2023-12-20T03:38:26;5.83;;;1.50;;
56667;SDS011;42542;48.360;10.958;2023-12-20T03:41:28;5.45;;;1.75;;
56667;SDS011;42542;48.360;10.958;2023-12-20T03:44:30;6.55;;;1.70;;
56667;SDS011;42542;48.360;10.958;2023-12-20T03:47:32;6.22;;;1.50;;
56667;SDS011;42542;48.360;10.958;2023-12-20T03:50:34;6.47;;;1.70;;
56667;SDS011;42542;48.360;10.958;2023-12-20T03:53:37;5.25;;;1.63;;
56667;SDS011;42542;48.360;10.958;2023-12-20T03:56:39;7.03;;;1.60;;
56667;SDS011;42542;48.360;10.958;2023-12-20T03:59:41;4.53;;;1.37;;
56667;SDS011;42542;48.360;10.958;2023-12-20T04:02:43;5.35;;;1.73;;
56667;SDS011;42542;48.360;10.958;2023-12-20T04:05:45;5.43;;;1.48;;
56667;SDS011;42542;48.360;10.958;2023-12-20T04:08:47;4.73;;;1.20;;
56667;SDS011;42542;48.360;10.958;2023-12-20T04:11:48;5.40;;;1.70;;
56667;SDS011;42542;48.360;10.958;2023-12-20T04:14:51;5.00;;;1.50;;
56667;SDS011;42542;48.360;10.958;2023-12-20T04:17:53;5.15;;;1.50;;
56667;SDS011;42542;48.360;10.958;2023-12-20T04:20:55;5.43;;;1.55;;
56667;SDS011;42542;48.360;10.958;2023-12-20T04:23:57;5.43;;;1.77;;
56667;SDS011;42542;48.360;10.958;2023-12-20T04:26:58;6.47;;;1.70;;
56667;SDS011;42542;48.360;10.958;2023-12-20T04:30:01;5.60;;;1.50;;
56667;SDS011;42542;48.360;10.958;2023-12-20T04:33:03;5.30;;;1.60;;
56667;SDS011;42542;48.360;10.958;2023-12-20T04:36:05;6.20;;;1.85;;
56667;SDS011;42542;48.360;10.958;2023-12-20T04:39:07;5.17;;;1.90;;
56667;SDS011;42542;48.360;10.958;2023-12-20T04:42:08;5.22;;;1.58;;
56667;SDS011;42542;48.360;10.958;2023-12-20T04:45:10;6.53;;;1.83;;
56667;SDS011;42542;48.360;10.958;2023-12-20T04:48:14;6.05;;;1.85;;
56667;SDS011;42542;48.360;10.958;2023-12-20T04:51:16;5.00;;;1.75;;
56667;SDS011;42542;48.360;10.958;2023-12-20T04:54:18;6.20;;;1.92;;
56667;SDS011;42542;48.360;10.958;2023-12-20T04:57:20;5.90;;;1.80;;
56667;SDS011;42542;48.360;10.958;2023-12-20T05:00:21;5.83;;;1.90;;
56667;SDS011;42542;48.360;10.958;2023-12-20T05:03:23;6.10;;;1.73;;
56667;SDS011;42542;48.360;10.958;2023-12-20T05:06:25;6.22;;;1.95;;
56667;SDS011;42542;48.360;10.958;2023-12-20T05:09:27;6.00;;;2.10;;
56667;SDS011;42542;48.360;10.958;2023-12-20T05:12:28;6.35;;;2.00;;
56667;SDS011;42542;48.360;10.958;2023-12-20T05:15:30;6.07;;;1.60;;
56667;SDS011;42542;48.360;10.958;2023-12-20T05:18:32;5.38;;;1.60;;
56667;SDS011;42542;48.360;10.958;2023-12-20T05:21:34;5.60;;;1.80;;
56667;SDS011;42542;48.360;10.958;2023-12-20T05:24:35;7.47;;;2.10;;
56667;SDS011;42542;48.360;10.958;2023-12-20T05:27:37;8.80;;;2.60;;
56667;SDS011;42542;48.360;10.958;2023-12-20T05:30:39;5.50;;;1.80;;
56667;SDS011;42542;48.360;10.958;2023-12-20T05:33:41;5.82;;;1.80;;
56667;SDS011;42542;48.360;10.958;2023-12-20T05:36:43;5.45;;;1.52;;
56667;SDS011;42542;48.360;10.958;2023-12-20T05:39:46;5.63;;;1.60;;
56667;SDS011;42542;48.360;10.958;2023-12-20T05:42:47;6.72;;;1.70;;
56667;SDS011;42542;48.360;10.958;2023-12-20T05:45:50;5.30;;;1.50;;
56667;SDS011;42542;48.360;10.958;2023-12-20T05:48:52;4.82;;;1.40;;
56667;SDS011;42542;48.360;10.958;2023-12-20T05:51:54;5.40;;;1.50;;
56667;SDS011;42542;48.360;10.958;2023-12-20T05:54:56;5.72;;;1.80;;
56667;SDS011;42542;48.360;10.958;2023-12-20T05:58:02;5.53;;;1.60;;
56667;SDS011;42542;48.360;10.958;2023-12-20T06:01:04;4.50;;;1.47;;
56667;SDS011;42542;48.360;10.958;2023-12-20T06:04:07;5.55;;;1.55;;
56667;SDS011;42542;48.360;10.958;2023-12-20T06:07:11;5.05;;;1.65;;
56667;SDS011;42542;48.360;10.958;2023-12-20T06:10:13;6.97;;;1.50;;
56667;SDS011;42542;48.360;10.958;2023-12-20T06:13:15;5.22;;;1.80;;
56667;SDS011;42542;48.360;10.958;2023-12-20T06:16:18;5.22;;;1.48;;
56667;SDS011;42542;48.360;10.958;2023-12-20T06:19:19;5.20;;;1.45;;
56667;SDS011;42542;48.360;10.958;2023-12-20T06:22:22;5.05;;;1.70;;
56667;SDS011;42542;48.360;10.958;2023-12-20T06:25:24;6.28;;;1.50;;
56667;SDS011;42542;48.360;10.958;2023-12-20T06:28:26;6.30;;;1.90;;
56667;SDS011;42542;48.360;10.958;2023-12-20T06:31:28;5.90;;;1.50;;
56667;SDS011;42542;48.360;10.958;2023-12-20T06:34:31;5.57;;;1.60;;
56667;SDS011;42542;48.360;10.958;2023-12-20T06:37:32;5.82;;;2.00;;
56667;SDS011;42542;48.360;10.958;2023-12-20T06:40:34;6.00;;;1.77;;
56667;SDS011;42542;48.360;10.958;2023-12-20T06:43:36;6.70;;;2.17;;
56667;SDS011;42542;48.360;10.958;2023-12-20T06:46:50;6.78;;;2.00;;
56667;SDS011;42542;48.360;10.958;2023-12-20T06:49:52;6.65;;;2.08;;
56667;SDS011;42542;48.360;10.958;2023-12-20T06:52:54;6.13;;;2.00;;
56667;SDS011;42542;48.360;10.958;2023-12-20T06:55:56;9.27;;;2.70;;
56667;SDS011;42542;48.360;10.958;2023-12-20T06:58:58;11.48;;;3.50;;
56667;SDS011;42542;48.360;10.958;2023-12-20T07:02:00;8.30;;;2.90;;
56667;SDS011;42542;48.360;10.958;2023-12-20T07:05:03;7.20;;;2.40;;
56667;SDS011;42542;48.360;10.958;2023-12-20T07:08:05;7.20;;;2.53;;
56667;SDS011;42542;48.360;10.958;2023-12-20T07:11:08;8.03;;;2.87;;
56667;SDS011;42542;48.360;10.958;2023-12-20T07:14:10;11.13;;;3.10;;
56667;SDS011;42542;48.360;10.958;2023-12-20T07:17:12;7.30;;;2.60;;
56667;SDS011;42542;48.360;10.958;2023-12-20T07:20:15;9.48;;;3.10;;
56667;SDS011;42542;48.360;10.958;2023-12-20T07:23:17;8.43;;;3.03;;
56667;SDS011;42542;48.360;10.958;2023-12-20T07:26:21;7.18;;;2.88;;
56667;SDS011;42542;48.360;10.958;2023-12-20T07:29:24;8.45;;;2.67;;
56667;SDS011;42542;48.360;10.958;2023-12-20T07:32:25;7.90;;;2.70;;
56667;SDS011;42542;48.360;10.958;2023-12-20T07:35:27;9.63;;;3.25;;
56667;SDS011;42542;48.360;10.958;2023-12-20T07:38:29;8.55;;;3.40;;
56667;SDS011;42542;48.360;10.958;2023-12-20T07:41:30;8.23;;;2.93;;
56667;SDS011;42542;48.360;10.958;2023-12-20T07:44:32;7.28;;;2.40;;
56667;SDS011;42542;48.360;10.958;2023-12-20T07:47:34;7.32;;;2.55;;
56667;SDS011;42542;48.360;10.958;2023-12-20T07:50:35;7.15;;;2.58;;
56667;SDS011;42542;48.360;10.958;2023-12-20T07:53:38;7.35;;;2.33;;
56667;SDS011;42542;48.360;10.958;2023-12-20T07:56:40;9.00;;;2.63;;
56667;SDS011;42542;48.360;10.958;2023-12-20T07:59:42;10.15;;;3.08;;
56667;SDS011;42542;48.360;10.958;2023-12-20T08:02:45;8.13;;;2.93;;
56667;SDS011;42542;48.360;10.958;2023-12-20T08:05:48;6.65;;;2.47;;
56667;SDS011;42542;48.360;10.958;2023-12-20T08:08:49;8.15;;;2.75;;
56667;SDS011;42542;48.360;10.958;2023-12-20T08:12:02;6.47;;;2.17;;
56667;SDS011;42542;48.360;10.958;2023-12-20T08:15:04;6.75;;;2.08;;
56667;SDS011;42542;48.360;10.958;2023-12-20T08:18:06;6.22;;;2.22;;
56667;SDS011;42542;48.360;10.958;2023-12-20T08:21:08;7.07;;;2.30;;
56667;SDS011;42542;48.360;10.958;2023-12-20T08:24:10;6.45;;;2.13;;
56667;SDS011;42542;48.360;10.958;2023-12-20T08:27:12;6.90;;;2.20;;
56667;SDS011;42542;48.360;10.958;2023-12-20T08:30:14;6.53;;;2.00;;
56667;SDS011;42542;48.360;10.958;2023-12-20T08:33:18;6.87;;;1.80;;
56667;SDS011;42542;48.360;10.958;2023-12-20T08:36:21;6.45;;;2.15;;
56667;SDS011;42542;48.360;10.958;2023-12-20T08:39:24;8.27;;;2.28;;
56667;SDS011;42542;48.360;10.958;2023-12-20T08:42:27;6.60;;;2.07;;
56667;SDS011;42542;48.360;10.958;2023-12-20T08:45:32;5.53;;;1.80;;
56667;SDS011;42542;48.360;10.958;2023-12-20T08:48:34;6.05;;;1.85;;
56667;SDS011;42542;48.360;10.958;2023-12-20T08:51:36;7.32;;;2.33;;
56667;SDS011;42542;48.360;10.958;2023-12-20T08:54:41;8.57;;;3.03;;
56667;SDS011;42542;48.360;10.958;2023-12-20T08:57:45;8.30;;;2.67;;
56667;SDS011;42542;48.360;10.958;2023-12-20T09:00:48;9.02;;;2.42;;
56667;SDS011;42542;48.360;10.958;2023-12-20T09:03:50;5.83;;;1.67;;
56667;SDS011;42542;48.360;10.958;2023-12-20T09:06:52;7.07;;;2.33;;
56667;SDS011;42542;48.360;10.958;2023-12-20T09:09:53;6.53;;;2.55;;
56667;SDS011;42542;48.360;10.958;2023-12-20T09:12:56;8.43;;;2.73;;
56667;SDS011;42542;48.360;10.958;2023-12-20T09:15:58;8.55;;;3.03;;
56667;SDS011;42542;48.360;10.958;2023-12-20T09:19:00;10.30;;;3.33;;
56667;SDS011;42542;48.360;10.958;2023-12-20T09:22:03;8.93;;;3.03;;
56667;SDS011;42542;48.360;10.958;2023-12-20T09:25:05;8.00;;;2.67;;
56667;SDS011;42542;48.360;10.958;2023-12-20T09:28:07;6.32;;;2.22;;
56667;SDS011;42542;48.360;10.958;2023-12-20T09:31:08;7.30;;;2.22;;
56667;SDS011;42542;48.360;10.958;2023-12-20T09:34:10;9.17;;;3.00;;
56667;SDS011;42542;48.360;10.958;2023-12-20T09:37:12;9.25;;;2.92;;
56667;SDS011;42542;48.360;10.958;2023-12-20T09:40:15;8.05;;;2.95;;
56667;SDS011;42542;48.360;10.958;2023-12-20T09:43:20;6.57;;;2.03;;
56667;SDS011;42542;48.360;10.958;2023-12-20T09:46:23;5.75;;;1.98;;
56667;SDS011;42542;48.360;10.958;2023-12-20T09:49:28;7.32;;;2.40;;
56667;SDS011;42542;48.360;10.958;2023-12-20T09:52:32;6.88;;;2.20;;
56667;SDS011;42542;48.360;10.958;2023-12-20T09:55:38;6.97;;;2.70;;
56667;SDS011;42542;48.360;10.958;2023-12-20T09:58:43;8.20;;;2.92;;
56667;SDS011;42542;48.360;10.958;2023-12-20T10:01:44;7.50;;;2.58;;
56667;SDS011;42542;48.360;10.958;2023-12-20T10:04:47;7.63;;;2.53;;
56667;SDS011;42542;48.360;10.958;2023-12-20T10:07:49;6.47;;;2.20;;
56667;SDS011;42542;48.360;10.958;2023-12-20T10:10:52;7.45;;;2.22;;
56667;SDS011;42542;48.360;10.958;2023-12-20T10:14:01;7.43;;;2.10;;
56667;SDS011;42542;48.360;10.958;2023-12-20T10:17:03;5.32;;;1.98;;
56667;SDS011;42542;48.360;10.958;2023-12-20T10:20:06;5.80;;;1.83;;
56667;SDS011;42542;48.360;10.958;2023-12-20T10:23:12;6.15;;;1.83;;
56667;SDS011;42542;48.360;10.958;2023-12-20T10:26:20;5.82;;;1.95;;
56667;SDS011;42542;48.360;10.958;2023-12-20T10:29:26;7.25;;;1.98;;
56667;SDS011;42542;48.360;10.958;2023-12-20T10:32:29;5.68;;;1.80;;
56667;SDS011;42542;48.360;10.958;2023-12-20T10:35:31;5.30;;;1.60;;
56667;SDS011;42542;48.360;10.958;2023-12-20T10:38:33;5.95;;;1.63;;
56667;SDS011;42542;48.360;10.958;2023-12-20T10:41:36;5.85;;;1.80;;
56667;SDS011;42542;48.360;10.958;2023-12-20T10:44:43;5.30;;;1.90;;
56667;SDS011;42542;48.360;10.958;2023-12-20T10:47:46;8.30;;;3.08;;
56667;SDS011;42542;48.360;10.958;2023-12-20T10:50:49;6.95;;;2.47;;
56667;SDS011;42542;48.360;10.958;2023-12-20T10:53:51;7.25;;;2.33;;
56667;SDS011;42542;48.360;10.958;2023-12-20T10:56:54;6.18;;;1.90;;
56667;SDS011;42542;48.360;10.958;2023-12-20T11:00:00;5.68;;;1.88;;
56667;SDS011;42542;48.360;10.958;2023-12-20T11:03:06;6.50;;;2.00;;
56667;SDS011;42542;48.360;10.958;2023-12-20T11:06:16;5.50;;;1.73;;
56667;SDS011;42542;48.360;10.958;2023-12-20T11:09:47;5.32;;;1.90;;
56667;SDS011;42542;48.360;10.958;2023-12-20T11:13:11;5.80;;;1.92;;
56667;SDS011;42542;48.360;10.958;2023-12-20T11:16:19;6.33;;;2.03;;
56667;SDS011;42542;48.360;10.958;2023-12-20T11:19:22;5.00;;;1.65;;
56667;SDS011;42542;48.360;10.958;2023-12-20T11:22:25;5.45;;;1.60;;
56667;SDS011;42542;48.360;10.958;2023-12-20T11:25:27;6.00;;;1.98;;
56667;SDS011;42542;48.360;10.958;2023-12-20T11:28:30;6.18;;;1.50;;
56667;SDS011;42542;48.360;10.958;2023-12-20T11:31:39;5.55;;;1.60;;
56667;SDS011;42542;48.360;10.958;2023-12-20T11:34:42;4.97;;;1.58;;
56667;SDS011;42542;48.360;10.958;2023-12-20T11:37:44;5.87;;;1.87;;
56667;SDS011;42542;48.360;10.958;2023-12-20T11:40:49;4.88;;;1.48;;
56667;SDS011;42542;48.360;10.958;2023-12-20T11:43:55;9.73;;;1.73;;
56667;SDS011;42542;48.360;10.958;2023-12-20T11:46:58;5.70;;;1.80;;
56667;SDS011;42542;48.360;10.958;2023-12-20T11:50:00;5.68;;;1.77;;
56667;SDS011;42542;48.360;10.958;2023-12-20T11:53:05;5.82;;;1.83;;
56667;SDS011;42542;48.360;10.958;2023-12-20T11:56:07;6.10;;;1.83;;
56667;SDS011;42542;48.360;10.958;2023-12-20T11:59:10;6.10;;;1.83;;
56667;SDS011;42542;48.360;10.958;2023-12-20T12:02:24;4.85;;;1.60;;
56667;SDS011;42542;48.360;10.958;2023-12-20T12:05:27;6.82;;;2.50;;
56667;SDS011;42542;48.360;10.958;2023-12-20T12:08:29;8.07;;;1.80;;
56667;SDS011;42542;48.360;10.958;2023-12-20T12:11:30;6.25;;;1.90;;
56667;SDS011;42542;48.360;10.958;2023-12-20T12:14:32;6.10;;;1.98;;
56667;SDS011;42542;48.360;10.958;2023-12-20T12:17:34;5.93;;;1.83;;
56667;SDS011;42542;48.360;10.958;2023-12-20T12:20:37;5.43;;;1.90;;
56667;SDS011;42542;48.360;10.958;2023-12-20T12:23:40;6.88;;;2.08;;
56667;SDS011;42542;48.360;10.958;2023-12-20T12:26:41;5.82;;;1.92;;
56667;SDS011;42542;48.360;10.958;2023-12-20T12:30:03;6.47;;;1.85;;
56667;SDS011;42542;48.360;10.958;2023-12-20T12:33:07;5.80;;;1.83;;
56667;SDS011;42542;48.360;10.958;2023-12-20T12:36:09;8.10;;;2.75;;
56667;SDS011;42542;48.360;10.958;2023-12-20T12:39:12;7.03;;;1.83;;
56667;SDS011;42542;48.360;10.958;2023-12-20T12:42:17;8.60;;;2.40;;
56667;SDS011;42542;48.360;10.958;2023-12-20T12:45:18;7.47;;;2.00;;
56667;SDS011;42542;48.360;10.958;2023-12-20T12:48:20;5.67;;;1.93;;
56667;SDS011;42542;48.360;10.958;2023-12-20T12:51:22;7.47;;;1.60;;
56667;SDS011;42542;48.360;10.958;2023-12-20T12:54:25;4.78;;;1.50;;
56667;SDS011;42542;48.360;10.958;2023-12-20T12:57:27;6.20;;;1.58;;
56667;SDS011;42542;48.360;10.958;2023-12-20T13:00:29;4.82;;;1.58;;
56667;SDS011;42542;48.360;10.958;2023-12-20T13:03:31;4.75;;;1.33;;
56667;SDS011;42542;48.360;10.958;2023-12-20T13:06:33;5.80;;;1.70;;
56667;SDS011;42542;48.360;10.958;2023-12-20T13:09:34;7.00;;;1.90;;
56667;SDS011;42542;48.360;10.958;2023-12-20T13:12:37;8.60;;;1.60;;
56667;SDS011;42542;48.360;10.958;2023-12-20T13:15:39;8.57;;;1.75;;
56667;SDS011;42542;48.360;10.958;2023-12-20T13:18:41;6.53;;;1.60;;
56667;SDS011;42542;48.360;10.958;2023-12-20T13:21:44;4.70;;;1.15;;
56667;SDS011;42542;48.360;10.958;2023-12-20T13:24:46;4.63;;;1.20;;
56667;SDS011;42542;48.360;10.958;2023-12-20T13:27:48;5.38;;;1.40;;
56667;SDS011;42542;48.360;10.958;2023-12-20T13:30:50;4.72;;;1.42;;
56667;SDS011;42542;48.360;10.958;2023-12-20T13:33:52;7.40;;;1.15;;
56667;SDS011;42542;48.360;10.958;2023-12-20T13:36:55;4.78;;;1.20;;
56667;SDS011;42542;48.360;10.958;2023-12-20T13:39:58;4.80;;;1.00;;
56667;SDS011;42542;48.360;10.958;2023-12-20T13:43:00;5.10;;;1.30;;
56667;SDS011;42542;48.360;10.958;2023-12-20T13:46:02;4.20;;;1.10;;
56667;SDS011;42542;48.360;10.958;2023-12-20T13:49:04;5.40;;;1.40;;
56667;SDS011;42542;48.360;10.958;2023-12-20T13:52:06;4.80;;;1.23;;
56667;SDS011;42542;48.360;10.958;2023-12-20T13:55:09;5.10;;;1.23;;
56667;SDS011;42542;48.360;10.958;2023-12-20T13:58:11;6.05;;;1.48;;
56667;SDS011;42542;48.360;10.958;2023-12-20T14:01:14;6.72;;;1.30;;
56667;SDS011;42542;48.360;10.958;2023-12-20T14:04:16;5.90;;;1.50;;
56667;SDS011;42542;48.360;10.958;2023-12-20T14:07:37;7.95;;;1.40;;
56667;SDS011;42542;48.360;10.958;2023-12-20T14:10:40;6.00;;;1.87;;
56667;SDS011;42542;48.360;10.958;2023-12-20T14:13:42;7.97;;;1.67;;
56667;SDS011;42542;48.360;10.958;2023-12-20T14:16:44;6.72;;;1.50;;
56667;SDS011;42542;48.360;10.958;2023-12-20T14:19:46;4.37;;;1.30;;
56667;SDS011;42542;48.360;10.958;2023-12-20T14:22:48;5.05;;;1.40;;
56667;SDS011;42542;48.360;10.958;2023-12-20T14:25:50;6.05;;;1.40;;
56667;SDS011;42542;48.360;10.958;2023-12-20T14:28:54;6.65;;;1.90;;
56667;SDS011;42542;48.360;10.958;2023-12-20T14:31:55;6.25;;;1.85;;
56667;SDS011;42542;48.360;10.958;2023-12-20T14:34:57;5.07;;;1.35;;
56667;SDS011;42542;48.360;10.958;2023-12-20T14:37:59;4.88;;;1.58;;
56667;SDS011;42542;48.360;10.958;2023-12-20T14:41:02;7.63;;;1.80;;
56667;SDS011;42542;48.360;10.958;2023-12-20T14:44:05;4.70;;;1.40;;
56667;SDS011;42542;48.360;10.958;2023-12-20T14:47:07;7.60;;;1.70;;
56667;SDS011;42542;48.360;10.958;2023-12-20T14:50:10;5.50;;;1.37;;
56667;SDS011;42542;48.360;10.958;2023-12-20T14:53:15;5.30;;;1.23;;
56667;SDS011;42542;48.360;10.958;2023-12-20T14:56:22;4.28;;;1.15;;
56667;SDS011;42542;48.360;10.958;2023-12-20T14:59:25;6.03;;;1.30;;
56667;SDS011;42542;48.360;10.958;2023-12-20T15:02:27;5.97;;;1.40;;
56667;SDS011;42542;48.360;10.958;2023-12-20T15:05:29;5.10;;;1.50;;
56667;SDS011;42542;48.360;10.958;2023-12-20T15:08:31;4.65;;;1.20;;
56667;SDS011;42542;48.360;10.958;2023-12-20T15:11:34;6.77;;;1.27;;
56667;SDS011;42542;48.360;10.958;2023-12-20T15:14:36;5.05;;;1.35;;
56667;SDS011;42542;48.360;10.958;2023-12-20T15:17:39;5.47;;;1.27;;
56667;SDS011;42542;48.360;10.958;2023-12-20T15:20:41;5.70;;;1.40;;
56667;SDS011;42542;48.360;10.958;2023-12-20T15:23:45;6.78;;;1.65;;
56667;SDS011;42542;48.360;10.958;2023-12-20T15:26:54;5.85;;;1.23;;
56667;SDS011;42542;48.360;10.958;2023-12-20T15:29:57;8.23;;;1.48;;
56667;SDS011;42542;48.360;10.958;2023-12-20T15:32:59;5.53;;;1.35;;
56667;SDS011;42542;48.360;10.958;2023-12-20T15:36:03;6.60;;;1.30;;
56667;SDS011;42542;48.360;10.958;2023-12-20T15:39:05;3.90;;;1.30;;
56667;SDS011;42542;48.360;10.958;2023-12-20T15:42:10;6.73;;;1.27;;
56667;SDS011;42542;48.360;10.958;2023-12-20T15:45:12;5.82;;;1.70;;
56667;SDS011;42542;48.360;10.958;2023-12-20T15:48:14;8.20;;;2.92;;
56667;SDS011;42542;48.360;10.958;2023-12-20T15:51:20;11.63;;;2.37;;
56667;SDS011;42542;48.360;10.958;2023-12-20T15:54:23;7.18;;;1.98;;
56667;SDS011;42542;48.360;10.958;2023-12-20T15:57:26;17.92;;;5.25;;
56667;SDS011;42542;48.360;10.958;2023-12-20T16:00:33;10.88;;;3.25;;
56667;SDS011;42542;48.360;10.958;2023-12-20T16:03:36;8.25;;;2.20;;
56667;SDS011;42542;48.360;10.958;2023-12-20T16:06:47;5.95;;;2.00;;
56667;SDS011;42542;48.360;10.958;2023-12-20T16:09:48;5.93;;;1.50;;
56667;SDS011;42542;48.360;10.958;2023-12-20T16:12:51;5.13;;;1.20;;
56667;SDS011;42542;48.360;10.958;2023-12-20T16:15:53;6.13;;;1.52;;
56667;SDS011;42542;48.360;10.958;2023-12-20T16:18:55;5.78;;;1.10;;
56667;SDS011;42542;48.360;10.958;2023-12-20T16:21:58;7.13;;;1.40;;
56667;SDS011;42542;48.360;10.958;2023-12-20T16:24:59;4.18;;;1.13;;
56667;SDS011;42542;48.360;10.958;2023-12-20T16:28:01;4.88;;;1.30;;
56667;SDS011;42542;48.360;10.958;2023-12-20T16:31:03;6.95;;;1.50;;
56667;SDS011;42542;48.360;10.958;2023-12-20T16:34:05;8.50;;;2.55;;
56667;SDS011;42542;48.360;10.958;2023-12-20T16:37:08;8.18;;;2.80;;
56667;SDS011;42542;48.360;10.958;2023-12-20T16:40:10;7.18;;;1.60;;
56667;SDS011;42542;48.360;10.958;2023-12-20T16:43:13;5.10;;;1.30;;
56667;SDS011;42542;48.360;10.958;2023-12-20T16:46:15;4.97;;;1.10;;
56667;SDS011;42542;48.360;10.958;2023-12-20T16:49:16;4.72;;;1.00;;
56667;SDS011;42542;48.360;10.958;2023-12-20T16:52:19;4.13;;;0.90;;
56667;SDS011;42542;48.360;10.958;2023-12-20T16:55:20;5.95;;;0.90;;
56667;SDS011;42542;48.360;10.958;2023-12-20T16:58:22;7.07;;;1.20;;
56667;SDS011;42542;48.360;10.958;2023-12-20T17:01:24;5.85;;;1.20;;
56667;SDS011;42542;48.360;10.958;2023-12-20T17:04:28;3.60;;;1.00;;
56667;SDS011;42542;48.360;10.958;2023-12-20T17:07:32;7.82;;;2.38;;
56667;SDS011;42542;48.360;10.958;2023-12-20T17:10:34;5.60;;;1.40;;
56667;SDS011;42542;48.360;10.958;2023-12-20T17:13:37;4.47;;;1.20;;
56667;SDS011;42542;48.360;10.958;2023-12-20T17:16:38;5.55;;;1.40;;
56667;SDS011;42542;48.360;10.958;2023-12-20T17:19:41;6.07;;;1.50;;
56667;SDS011;42542;48.360;10.958;2023-12-20T17:22:43;6.27;;;1.50;;
56667;SDS011;42542;48.360;10.958;2023-12-20T17:25:45;6.15;;;1.70;;
56667;SDS011;42542;48.360;10.958;2023-12-20T17:28:46;5.88;;;1.40;;
56667;SDS011;42542;48.360;10.958;2023-12-20T17:31:48;5.53;;;1.80;;
56667;SDS011;42542;48.360;10.958;2023-12-20T17:34:50;4.50;;;1.30;;
56667;SDS011;42542;48.360;10.958;2023-12-20T17:37:53;5.40;;;1.20;;
56667;SDS011;42542;48.360;10.958;2023-12-20T17:40:55;5.40;;;1.40;;
56667;SDS011;42542;48.360;10.958;2023-12-20T17:43:57;6.87;;;1.60;;
56667;SDS011;42542;48.360;10.958;2023-12-20T17:46:58;6.05;;;1.60;;
56667;SDS011;42542;48.360;10.958;2023-12-20T17:50:00;6.70;;;1.77;;
56667;SDS011;42542;48.360;10.958;2023-12-20T17:53:02;7.90;;;2.10;;
56667;SDS011;42542;48.360;10.958;2023-12-20T17:56:04;5.90;;;1.33;;
56667;SDS011;42542;48.360;10.958;2023-12-20T17:59:06;6.25;;;1.50;;
56667;SDS011;42542;48.360;10.958;2023-12-20T18:02:08;8.60;;;2.65;;
56667;SDS011;42542;48.360;10.958;2023-12-20T18:05:10;7.47;;;2.40;;